createdAt,value
2022-10-11T00:00:04.665Z,46.2
2022-10-11T00:01:27.514Z,46.2
2022-10-11T00:02:30.318Z,46.2
2022-10-11T00:03:33.984Z,46.1
2022-10-11T00:04:46.598Z,46.1
2022-10-11T00:05:59.959Z,46.0
2022-10-11T00:07:02.743Z,46.0
2022-10-11T00:08:15.955Z,46.0
2022-10-11T00:09:28.574Z,46.1
2022-10-11T00:10:41.968Z,46.0
2022-10-11T00:11:44.766Z,46.0
2022-10-11T00:12:58.959Z,46.0
2022-10-11T00:14:11.573Z,45.9
2022-10-11T00:15:14.967Z,45.9
2022-10-11T00:16:27.603Z,45.9
2022-10-11T00:17:40.974Z,45.9
2022-10-11T00:18:43.653Z,45.9
2022-10-11T00:19:56.982Z,45.9
2022-10-11T00:21:09.443Z,45.9
2022-10-11T00:22:22.478Z,45.9
2022-10-11T00:23:25.044Z,45.9
2022-10-11T00:24:38.598Z,45.9
2022-10-11T00:25:51.231Z,46.0
2022-10-11T00:26:54.461Z,45.9
2022-10-11T00:28:07.149Z,45.9
2022-10-11T00:29:20.970Z,46.0
2022-10-11T00:30:23.637Z,46.0
2022-10-11T00:31:36.960Z,45.9
2022-10-11T00:32:49.570Z,45.9
2022-10-11T00:34:02.990Z,45.9
2022-10-11T00:35:05.705Z,45.9
2022-10-11T00:36:18.969Z,45.9
2022-10-11T00:37:31.597Z,45.9
2022-10-11T00:38:34.975Z,45.9
2022-10-11T00:39:47.600Z,45.9
2022-10-11T00:41:00.964Z,45.9
2022-10-11T00:42:03.682Z,45.9
2022-10-11T00:43:17.010Z,45.9
2022-10-11T00:44:29.715Z,45.9
2022-10-11T00:45:43.036Z,45.9
2022-10-11T00:46:45.756Z,45.9
2022-10-11T00:47:58.981Z,45.8
2022-10-11T00:49:11.609Z,45.8
2022-10-11T00:50:15.007Z,45.8
2022-10-11T00:51:27.630Z,45.8
2022-10-11T00:52:40.985Z,45.8
2022-10-11T00:53:43.683Z,45.8
2022-10-11T00:54:56.965Z,45.8
2022-10-11T00:56:09.782Z,45.8
2022-10-11T00:57:23.515Z,45.8
2022-10-11T00:58:26.246Z,45.8
2022-10-11T00:59:39.475Z,45.8
2022-10-11T01:00:52.221Z,45.7
2022-10-11T01:01:55.988Z,45.8
2022-10-11T01:03:08.761Z,45.8
2022-10-11T01:04:21.987Z,45.8
2022-10-11T01:05:29.529Z,45.8
2022-10-11T01:06:43.513Z,45.7
2022-10-11T01:07:46.221Z,45.8
2022-10-11T01:08:59.498Z,45.8
2022-10-11T01:10:12.116Z,45.7
2022-10-11T01:11:15.509Z,45.8
2022-10-11T01:12:28.127Z,45.7
2022-10-11T01:13:41.492Z,45.7
2022-10-11T01:14:54.113Z,45.7
2022-10-11T01:15:57.562Z,45.7
2022-10-11T01:17:10.275Z,45.7
2022-10-11T01:18:23.458Z,45.7
2022-10-11T01:19:26.156Z,45.8
2022-10-11T01:22:05.807Z,45.7
2022-10-11T01:22:58.586Z,45.7
2022-10-11T01:24:11.943Z,45.8
2022-10-11T01:25:24.576Z,45.7
2022-10-11T01:26:27.940Z,45.7
2022-10-11T01:27:40.568Z,45.7
2022-10-11T01:28:54.035Z,45.7
2022-10-11T01:29:56.878Z,45.7
2022-10-11T01:31:10.419Z,45.7
2022-10-11T01:32:23.054Z,45.7
2022-10-11T01:33:36.417Z,45.7
2022-10-11T01:34:39.122Z,45.7
2022-10-11T01:35:52.926Z,45.7
2022-10-11T01:37:05.562Z,45.6
2022-10-11T01:38:08.914Z,45.7
2022-10-11T01:39:21.541Z,45.6
2022-10-11T01:40:34.891Z,45.6
2022-10-11T01:41:37.577Z,45.7
2022-10-11T01:42:50.922Z,45.6
2022-10-11T01:44:03.577Z,45.6
2022-10-11T01:45:16.924Z,45.6
2022-10-11T01:46:19.663Z,45.7
2022-10-11T01:47:32.909Z,45.7
2022-10-11T01:48:45.544Z,45.6
2022-10-11T01:49:48.910Z,45.6
2022-10-11T01:51:01.548Z,45.6
2022-10-11T01:52:14.919Z,45.7
2022-10-11T01:53:27.545Z,45.6
2022-10-11T01:54:49.822Z,45.6
2022-10-11T01:55:39.819Z,45.6
2022-10-11T01:56:52.471Z,45.6
2022-10-11T01:58:05.907Z,45.5
2022-10-11T01:59:08.610Z,45.6
2022-10-11T02:00:21.930Z,45.5
2022-10-11T02:01:34.673Z,45.7
2022-10-11T02:02:48.407Z,45.6
2022-10-11T02:03:51.092Z,45.7
2022-10-11T02:05:04.549Z,45.7
2022-10-11T02:06:17.178Z,45.6
2022-10-11T02:07:20.929Z,45.6
2022-10-11T02:08:33.568Z,45.6
2022-10-11T02:09:46.919Z,45.7
2022-10-11T02:10:49.635Z,45.6
2022-10-11T02:12:02.964Z,45.6
2022-10-11T02:13:15.612Z,45.6
2022-10-11T02:14:28.922Z,45.6
2022-10-11T02:15:31.618Z,45.6
2022-10-11T02:16:44.924Z,45.7
2022-10-11T02:17:57.567Z,45.6
2022-10-11T02:19:01.206Z,45.6
2022-10-11T02:20:13.864Z,45.7
2022-10-11T02:21:27.449Z,45.6
2022-10-11T02:23:57.521Z,45.7
2022-10-11T02:25:00.319Z,45.7
2022-10-11T02:26:13.066Z,45.7
2022-10-11T02:27:15.784Z,45.6
2022-10-11T02:28:29.151Z,45.6
2022-10-11T02:29:31.953Z,45.5
2022-10-11T02:30:45.561Z,45.6
2022-10-11T02:31:58.209Z,45.6
2022-10-11T02:33:11.601Z,45.6
2022-10-11T02:34:14.312Z,45.6
2022-10-11T02:35:27.605Z,45.6
2022-10-11T02:36:40.401Z,45.6
2022-10-11T02:37:44.118Z,45.5
2022-10-11T02:38:56.765Z,45.6
2022-10-11T02:40:10.084Z,45.6
2022-10-11T02:41:12.784Z,45.6
2022-10-11T02:42:26.595Z,45.6
